sensor_id;sensor_type;location;lat;lon;timestamp;pressure;altitude;pressure_sealevel;temperature;humidity
76311;BME280;65120;59.304;18.294;2023-09-19T00:00:56;100396.44;;;16.91;78.58
76311;BME280;65120;59.304;18.294;2023-09-19T00:03:23;100392.97;;;16.91;78.47
76311;BME280;65120;59.304;18.294;2023-09-19T00:05:51;100381.47;;;16.92;78.93
76311;BME280;65120;59.304;18.294;2023-09-19T00:08:18;100388.44;;;16.93;78.78
76311;BME280;65120;59.304;18.294;2023-09-19T00:10:50;100367.50;;;16.90;78.90
76311;BME280;65120;59.304;18.294;2023-09-19T00:13:19;100376.97;;;16.94;79.07
76311;BME280;65120;59.304;18.294;2023-09-19T00:15:47;100373.41;;;16.95;79.08
76311;BME280;65120;59.304;18.294;2023-09-19T00:18:15;100367.34;;;16.93;78.85
76311;BME280;65120;59.304;18.294;2023-09-19T00:20:42;100372.44;;;16.96;78.97
76311;BME280;65120;59.304;18.294;2023-09-19T00:23:14;100371.44;;;16.98;79.22
76311;BME280;65120;59.304;18.294;2023-09-19T00:25:41;100355.59;;;16.98;79.22
76311;BME280;65120;59.304;18.294;2023-09-19T00:28:08;100344.31;;;16.96;79.20
76311;BME280;65120;59.304;18.294;2023-09-19T00:30:35;100337.06;;;17.00;79.32
76311;BME280;65120;59.304;18.294;2023-09-19T00:33:04;100341.41;;;17.01;79.28
76311;BME280;65120;59.304;18.294;2023-09-19T00:35:33;100326.69;;;16.97;79.35
76311;BME280;65120;59.304;18.294;2023-09-19T00:38:00;100332.59;;;17.02;79.27
76311;BME280;65120;59.304;18.294;2023-09-19T00:40:28;100321.88;;;17.05;79.26
76311;BME280;65120;59.304;18.294;2023-09-19T00:42:57;100322.72;;;17.05;79.58
76311;BME280;65120;59.304;18.294;2023-09-19T00:45:25;100320.06;;;17.05;79.31
76311;BME280;65120;59.304;18.294;2023-09-19T00:47:53;100309.41;;;17.07;79.42
76311;BME280;65120;59.304;18.294;2023-09-19T00:50:23;100316.41;;;17.08;79.50
76311;BME280;65120;59.304;18.294;2023-09-19T00:52:54;100315.47;;;17.09;79.83
76311;BME280;65120;59.304;18.294;2023-09-19T00:55:23;100318.03;;;17.11;79.68
76311;BME280;65120;59.304;18.294;2023-09-19T00:57:52;100305.69;;;17.11;79.82
76311;BME280;65120;59.304;18.294;2023-09-19T01:00:19;100305.59;;;17.13;79.54
76311;BME280;65120;59.304;18.294;2023-09-19T01:02:46;100294.53;;;17.06;79.68
76311;BME280;65120;59.304;18.294;2023-09-19T01:05:14;100306.38;;;17.15;79.81
76311;BME280;65120;59.304;18.294;2023-09-19T01:07:41;100300.31;;;17.13;79.63
76311;BME280;65120;59.304;18.294;2023-09-19T01:10:12;100292.16;;;17.17;79.73
76311;BME280;65120;59.304;18.294;2023-09-19T01:12:49;100287.84;;;17.16;79.78
76311;BME280;65120;59.304;18.294;2023-09-19T01:15:26;100279.03;;;17.16;79.65
76311;BME280;65120;59.304;18.294;2023-09-19T01:17:59;100276.16;;;17.20;79.78
76311;BME280;65120;59.304;18.294;2023-09-19T01:20:34;100273.47;;;17.22;79.71
76311;BME280;65120;59.304;18.294;2023-09-19T01:23:13;100252.25;;;17.23;79.55
76311;BME280;65120;59.304;18.294;2023-09-19T01:26:04;100249.72;;;17.22;79.57
76311;BME280;65120;59.304;18.294;2023-09-19T01:28:43;100242.53;;;17.24;79.94
76311;BME280;65120;59.304;18.294;2023-09-19T01:31:15;100239.81;;;17.25;79.85
76311;BME280;65120;59.304;18.294;2023-09-19T01:33:58;100227.47;;;17.26;79.78
76311;BME280;65120;59.304;18.294;2023-09-19T01:36:30;100215.22;;;17.25;79.93
76311;BME280;65120;59.304;18.294;2023-09-19T01:39:00;100215.06;;;17.28;80.00
76311;BME280;65120;59.304;18.294;2023-09-19T01:41:44;100208.91;;;17.27;80.24
76311;BME280;65120;59.304;18.294;2023-09-19T01:44:17;100216.66;;;17.30;80.23
76311;BME280;65120;59.304;18.294;2023-09-19T01:46:47;100204.31;;;17.31;80.04
76311;BME280;65120;59.304;18.294;2023-09-19T01:49:22;100200.84;;;17.30;80.08
76311;BME280;65120;59.304;18.294;2023-09-19T01:51:58;100198.03;;;17.34;80.20
76311;BME280;65120;59.304;18.294;2023-09-19T01:54:32;100190.94;;;17.34;80.22
76311;BME280;65120;59.304;18.294;2023-09-19T01:57:03;100177.66;;;17.36;79.48
76311;BME280;65120;59.304;18.294;2023-09-19T01:59:36;100172.38;;;17.36;79.87
76311;BME280;65120;59.304;18.294;2023-09-19T02:02:09;100166.34;;;17.34;79.82
76311;BME280;65120;59.304;18.294;2023-09-19T02:04:37;100162.69;;;17.36;80.08
76311;BME280;65120;59.304;18.294;2023-09-19T02:07:04;100145.22;;;17.34;80.33
76311;BME280;65120;59.304;18.294;2023-09-19T02:09:34;100139.75;;;17.37;80.24
76311;BME280;65120;59.304;18.294;2023-09-19T02:12:05;100141.38;;;17.39;80.25
76311;BME280;65120;59.304;18.294;2023-09-19T02:14:32;100129.03;;;17.40;80.28
76311;BME280;65120;59.304;18.294;2023-09-19T02:16:59;100125.63;;;17.38;80.43
76311;BME280;65120;59.304;18.294;2023-09-19T02:19:28;100119.31;;;17.40;80.33
76311;BME280;65120;59.304;18.294;2023-09-19T02:21:55;100116.59;;;17.42;80.65
76311;BME280;65120;59.304;18.294;2023-09-19T02:24:22;100120.09;;;17.42;80.53
76311;BME280;65120;59.304;18.294;2023-09-19T02:26:52;100120.16;;;17.41;80.47
76311;BME280;65120;59.304;18.294;2023-09-19T02:29:20;100119.97;;;17.44;80.46
76311;BME280;65120;59.304;18.294;2023-09-19T02:31:47;100097.59;;;17.35;80.65
76311;BME280;65120;59.304;18.294;2023-09-19T02:34:14;100112.00;;;17.45;80.47
76311;BME280;65120;59.304;18.294;2023-09-19T02:36:43;100092.56;;;17.46;80.59
76311;BME280;65120;59.304;18.294;2023-09-19T02:39:11;100095.13;;;17.48;80.32
76311;BME280;65120;59.304;18.294;2023-09-19T02:41:38;100087.19;;;17.48;80.51
76311;BME280;65120;59.304;18.294;2023-09-19T02:44:07;100080.97;;;17.49;80.57
76311;BME280;65120;59.304;18.294;2023-09-19T02:46:34;100075.69;;;17.49;80.53
76311;BME280;65120;59.304;18.294;2023-09-19T02:49:02;100072.09;;;17.50;80.81
76311;BME280;65120;59.304;18.294;2023-09-19T02:51:30;100055.69;;;17.45;81.03
76311;BME280;65120;59.304;18.294;2023-09-19T02:53:59;100052.69;;;17.51;80.83
76311;BME280;65120;59.304;18.294;2023-09-19T02:56:28;100039.50;;;17.51;80.83
76311;BME280;65120;59.304;18.294;2023-09-19T02:58:56;100042.13;;;17.51;80.77
76311;BME280;65120;59.304;18.294;2023-09-19T03:01:23;100027.97;;;17.52;80.88
76311;BME280;65120;59.304;18.294;2023-09-19T03:03:50;100020.06;;;17.52;80.94
76311;BME280;65120;59.304;18.294;2023-09-19T03:06:17;100015.63;;;17.52;81.04
76311;BME280;65120;59.304;18.294;2023-09-19T03:08:45;100009.41;;;17.53;81.04
76311;BME280;65120;59.304;18.294;2023-09-19T03:11:15;99998.34;;;17.47;81.13
76311;BME280;65120;59.304;18.294;2023-09-19T03:13:50;99996.22;;;17.53;80.95
76311;BME280;65120;59.304;18.294;2023-09-19T03:16:17;99998.75;;;17.55;81.08
76311;BME280;65120;59.304;18.294;2023-09-19T03:18:47;99991.78;;;17.54;81.06
76311;BME280;65120;59.304;18.294;2023-09-19T03:21:14;99981.97;;;17.56;81.21
76311;BME280;65120;59.304;18.294;2023-09-19T03:23:42;99980.06;;;17.58;81.19
76311;BME280;65120;59.304;18.294;2023-09-19T03:26:11;99978.38;;;17.57;81.20
76311;BME280;65120;59.304;18.294;2023-09-19T03:28:41;99980.06;;;17.58;81.31
76311;BME280;65120;59.304;18.294;2023-09-19T03:31:09;99969.50;;;17.58;81.21
76311;BME280;65120;59.304;18.294;2023-09-19T03:33:36;99952.94;;;17.56;81.51
76311;BME280;65120;59.304;18.294;2023-09-19T03:36:04;99948.56;;;17.55;81.13
76311;BME280;65120;59.304;18.294;2023-09-19T03:38:31;99944.81;;;17.59;81.08
76311;BME280;65120;59.304;18.294;2023-09-19T03:41:00;99941.41;;;17.57;81.38
76311;BME280;65120;59.304;18.294;2023-09-19T03:43:27;99937.63;;;17.61;81.22
76311;BME280;65120;59.304;18.294;2023-09-19T03:45:55;99928.78;;;17.62;81.12
76311;BME280;65120;59.304;18.294;2023-09-19T03:48:23;99914.91;;;17.59;81.17
76311;BME280;65120;59.304;18.294;2023-09-19T03:50:49;99927.06;;;17.61;81.29
76311;BME280;65120;59.304;18.294;2023-09-19T03:53:17;99910.38;;;17.61;80.97
76311;BME280;65120;59.304;18.294;2023-09-19T03:55:45;99906.03;;;17.60;81.27
76311;BME280;65120;59.304;18.294;2023-09-19T03:58:12;99892.72;;;17.61;81.15
76311;BME280;65120;59.304;18.294;2023-09-19T04:00:39;99884.81;;;17.61;81.36
76311;BME280;65120;59.304;18.294;2023-09-19T04:03:08;99875.13;;;17.62;81.33
76311;BME280;65120;59.304;18.294;2023-09-19T04:05:36;99878.59;;;17.62;81.24
76311;BME280;65120;59.304;18.294;2023-09-19T04:08:04;99883.88;;;17.62;81.40
76311;BME280;65120;59.304;18.294;2023-09-19T04:10:31;99875.13;;;17.62;81.49
76311;BME280;65120;59.304;18.294;2023-09-19T04:12:58;99875.97;;;17.62;81.37
76311;BME280;65120;59.304;18.294;2023-09-19T04:15:25;99872.47;;;17.62;81.30
76311;BME280;65120;59.304;18.294;2023-09-19T04:17:52;99869.72;;;17.63;81.56
76311;BME280;65120;59.304;18.294;2023-09-19T04:20:21;99860.13;;;17.62;81.56
76311;BME280;65120;59.304;18.294;2023-09-19T04:22:49;99856.72;;;17.60;81.55
76311;BME280;65120;59.304;18.294;2023-09-19T04:25:16;99857.38;;;17.64;81.47
76311;BME280;65120;59.304;18.294;2023-09-19T04:27:44;99856.44;;;17.65;81.44
76311;BME280;65120;59.304;18.294;2023-09-19T04:30:12;99852.94;;;17.64;81.52
76311;BME280;65120;59.304;18.294;2023-09-19T04:32:40;99846.81;;;17.64;81.49
76311;BME280;65120;59.304;18.294;2023-09-19T04:35:08;99854.63;;;17.65;81.27
76311;BME280;65120;59.304;18.294;2023-09-19T04:37:38;99840.69;;;17.63;81.55
76311;BME280;65120;59.304;18.294;2023-09-19T04:40:08;99838.78;;;17.65;81.62
76311;BME280;65120;59.304;18.294;2023-09-19T04:42:39;99822.00;;;17.66;81.63
76311;BME280;65120;59.304;18.294;2023-09-19T04:45:07;99812.38;;;17.65;81.57
76311;BME280;65120;59.304;18.294;2023-09-19T04:47:35;99814.91;;;17.67;81.49
76311;BME280;65120;59.304;18.294;2023-09-19T04:50:06;99809.63;;;17.67;81.48
76311;BME280;65120;59.304;18.294;2023-09-19T04:52:33;99816.63;;;17.68;81.55
76311;BME280;65120;59.304;18.294;2023-09-19T04:55:01;99817.47;;;17.68;81.62
76311;BME280;65120;59.304;18.294;2023-09-19T04:57:29;99832.47;;;17.68;81.90
76311;BME280;65120;59.304;18.294;2023-09-19T04:59:57;99832.38;;;17.69;81.79
76311;BME280;65120;59.304;18.294;2023-09-19T05:02:24;99820.00;;;17.70;81.83
76311;BME280;65120;59.304;18.294;2023-09-19T05:04:51;99805.94;;;17.69;81.58
76311;BME280;65120;59.304;18.294;2023-09-19T05:07:19;99813.88;;;17.69;81.75
76311;BME280;65120;59.304;18.294;2023-09-19T05:09:47;99803.31;;;17.69;81.88
76311;BME280;65120;59.304;18.294;2023-09-19T05:12:16;99777.75;;;17.70;82.10
76311;BME280;65120;59.304;18.294;2023-09-19T05:14:45;99789.06;;;17.72;81.90
76311;BME280;65120;59.304;18.294;2023-09-19T05:17:13;99779.47;;;17.71;81.97
76311;BME280;65120;59.304;18.294;2023-09-19T05:19:42;99770.56;;;17.72;82.05
76311;BME280;65120;59.304;18.294;2023-09-19T05:22:09;99770.50;;;17.73;81.96
76311;BME280;65120;59.304;18.294;2023-09-19T05:24:38;99759.94;;;17.73;82.15
76311;BME280;65120;59.304;18.294;2023-09-19T05:27:05;99753.88;;;17.71;82.13
76311;BME280;65120;59.304;18.294;2023-09-19T05:29:34;99756.31;;;17.74;81.99
76311;BME280;65120;59.304;18.294;2023-09-19T05:32:01;99742.47;;;17.71;82.03
76311;BME280;65120;59.304;18.294;2023-09-19T05:34:29;99746.53;;;17.76;81.98
76311;BME280;65120;59.304;18.294;2023-09-19T05:36:56;99750.97;;;17.76;82.01
76311;BME280;65120;59.304;18.294;2023-09-19T05:39:23;99745.69;;;17.76;82.08
76311;BME280;65120;59.304;18.294;2023-09-19T05:41:50;99736.78;;;17.77;82.00
76311;BME280;65120;59.304;18.294;2023-09-19T05:44:16;99730.66;;;17.76;82.05
76311;BME280;65120;59.304;18.294;2023-09-19T05:46:45;99730.50;;;17.80;82.21
76311;BME280;65120;59.304;18.294;2023-09-19T05:49:13;99737.47;;;17.81;82.07
76311;BME280;65120;59.304;18.294;2023-09-19T05:51:41;99724.25;;;17.81;81.98
76311;BME280;65120;59.304;18.294;2023-09-19T05:54:08;99722.47;;;17.81;82.28
76311;BME280;65120;59.304;18.294;2023-09-19T05:56:36;99725.22;;;17.80;82.04
76311;BME280;65120;59.304;18.294;2023-09-19T05:59:03;99725.84;;;17.83;82.14
76311;BME280;65120;59.304;18.294;2023-09-19T06:01:31;99721.41;;;17.84;82.30
76311;BME280;65120;59.304;18.294;2023-09-19T06:04:01;99723.13;;;17.85;82.36
76311;BME280;65120;59.304;18.294;2023-09-19T06:06:28;99714.25;;;17.86;82.66
76311;BME280;65120;59.304;18.294;2023-09-19T06:08:55;99712.75;;;17.82;82.84
76311;BME280;65120;59.304;18.294;2023-09-19T06:11:23;99724.59;;;17.89;82.38
76311;BME280;65120;59.304;18.294;2023-09-19T06:13:51;99709.16;;;17.83;82.62
76311;BME280;65120;59.304;18.294;2023-09-19T06:16:18;99714.16;;;17.87;82.61
76311;BME280;65120;59.304;18.294;2023-09-19T06:18:45;99720.81;;;17.93;82.67
76311;BME280;65120;59.304;18.294;2023-09-19T06:21:14;99719.13;;;17.92;82.75
76311;BME280;65120;59.304;18.294;2023-09-19T06:23:41;99680.00;;;17.84;82.67
76311;BME280;65120;59.304;18.294;2023-09-19T06:26:07;99695.97;;;17.95;82.81
76311;BME280;65120;59.304;18.294;2023-09-19T06:28:34;99710.06;;;17.96;82.91
76311;BME280;65120;59.304;18.294;2023-09-19T06:31:02;99704.78;;;17.96;82.72
76311;BME280;65120;59.304;18.294;2023-09-19T06:33:33;99692.50;;;17.95;82.99
76311;BME280;65120;59.304;18.294;2023-09-19T06:36:03;99687.84;;;17.98;83.12
76311;BME280;65120;59.304;18.294;2023-09-19T06:38:31;99691.38;;;17.99;82.87
76311;BME280;65120;59.304;18.294;2023-09-19T06:41:00;99694.84;;;18.00;83.02
76311;BME280;65120;59.304;18.294;2023-09-19T06:43:29;99685.97;;;18.01;82.94
76311;BME280;65120;59.304;18.294;2023-09-19T06:45:58;99680.59;;;18.02;82.77
76311;BME280;65120;59.304;18.294;2023-09-19T06:48:25;99677.94;;;18.02;82.86
76311;BME280;65120;59.304;18.294;2023-09-19T06:50:53;99674.53;;;18.00;82.99
76311;BME280;65120;59.304;18.294;2023-09-19T06:53:20;99678.66;;;18.04;82.84
76311;BME280;65120;59.304;18.294;2023-09-19T06:55:50;99675.09;;;18.05;83.26
76311;BME280;65120;59.304;18.294;2023-09-19T06:58:17;99670.75;;;18.04;83.02
76311;BME280;65120;59.304;18.294;2023-09-19T07:00:44;99674.13;;;18.06;83.10
76311;BME280;65120;59.304;18.294;2023-09-19T07:03:13;99675.84;;;18.07;83.14
76311;BME280;65120;59.304;18.294;2023-09-19T07:05:41;99681.97;;;18.08;83.29
76311;BME280;65120;59.304;18.294;2023-09-19T07:08:09;99679.22;;;18.09;83.22
76311;BME280;65120;59.304;18.294;2023-09-19T07:10:37;99689.78;;;18.09;83.03
76311;BME280;65120;59.304;18.294;2023-09-19T07:13:08;99674.75;;;18.10;83.06
76311;BME280;65120;59.304;18.294;2023-09-19T07:15:37;99655.44;;;18.09;82.98
76311;BME280;65120;59.304;18.294;2023-09-19T07:18:12;99675.63;;;18.10;82.97
76311;BME280;65120;59.304;18.294;2023-09-19T07:20:40;99680.06;;;18.10;83.05
76311;BME280;65120;59.304;18.294;2023-09-19T07:23:10;99670.34;;;18.10;83.12
76311;BME280;65120;59.304;18.294;2023-09-19T07:25:39;99654.50;;;18.10;83.18
76311;BME280;65120;59.304;18.294;2023-09-19T07:28:07;99656.25;;;18.10;83.28
76311;BME280;65120;59.304;18.294;2023-09-19T07:30:36;99647.28;;;18.12;83.08
76311;BME280;65120;59.304;18.294;2023-09-19T07:33:04;99642.97;;;18.11;83.03
76311;BME280;65120;59.304;18.294;2023-09-19T07:35:31;99644.63;;;18.12;82.79
76311;BME280;65120;59.304;18.294;2023-09-19T07:37:58;99631.44;;;18.12;83.02
76311;BME280;65120;59.304;18.294;2023-09-19T07:40:27;99627.84;;;18.13;82.77
76311;BME280;65120;59.304;18.294;2023-09-19T07:42:54;99617.28;;;18.13;82.75
76311;BME280;65120;59.304;18.294;2023-09-19T07:45:23;99610.28;;;18.12;82.91
76311;BME280;65120;59.304;18.294;2023-09-19T07:47:51;99606.72;;;18.13;82.83
76311;BME280;65120;59.304;18.294;2023-09-19T07:50:19;99608.41;;;18.14;82.98
76311;BME280;65120;59.304;18.294;2023-09-19T07:52:46;99607.56;;;18.14;82.73
76311;BME280;65120;59.304;18.294;2023-09-19T07:55:13;99601.44;;;18.13;82.80
76311;BME280;65120;59.304;18.294;2023-09-19T07:57:41;99601.50;;;18.12;83.00
76311;BME280;65120;59.304;18.294;2023-09-19T08:00:10;99588.09;;;18.15;83.16
76311;BME280;65120;59.304;18.294;2023-09-19T08:02:39;99584.59;;;18.14;83.25
76311;BME280;65120;59.304;18.294;2023-09-19T08:05:07;99588.94;;;18.15;83.23
76311;BME280;65120;59.304;18.294;2023-09-19T08:07:36;99590.66;;;18.16;83.05
76311;BME280;65120;59.304;18.294;2023-09-19T08:10:04;99574.88;;;18.15;83.31
76311;BME280;65120;59.304;18.294;2023-09-19T08:12:33;99580.78;;;18.18;83.37
76311;BME280;65120;59.304;18.294;2023-09-19T08:15:01;99582.59;;;18.18;83.50
76311;BME280;65120;59.304;18.294;2023-09-19T08:17:31;99583.34;;;18.20;83.68
76311;BME280;65120;59.304;18.294;2023-09-19T08:20:01;99583.25;;;18.22;83.79
76311;BME280;65120;59.304;18.294;2023-09-19T08:22:30;99589.25;;;18.24;83.69
76311;BME280;65120;59.304;18.294;2023-09-19T08:24:57;99583.25;;;18.22;83.96
76311;BME280;65120;59.304;18.294;2023-09-19T08:27:25;99592.66;;;18.26;83.95
76311;BME280;65120;59.304;18.294;2023-09-19T08:29:53;99590.75;;;18.28;84.06
76311;BME280;65120;59.304;18.294;2023-09-19T08:32:20;99588.81;;;18.30;83.99
76311;BME280;65120;59.304;18.294;2023-09-19T08:34:49;99594.00;;;18.31;83.88
76311;BME280;65120;59.304;18.294;2023-09-19T08:37:18;99590.41;;;18.32;84.13
76311;BME280;65120;59.304;18.294;2023-09-19T08:39:44;99592.00;;;18.35;84.08
76311;BME280;65120;59.304;18.294;2023-09-19T08:42:11;99585.78;;;18.36;84.21
76311;BME280;65120;59.304;18.294;2023-09-19T08:44:40;99567.97;;;18.38;83.89
76311;BME280;65120;59.304;18.294;2023-09-19T08:47:10;99571.38;;;18.40;83.98
76311;BME280;65120;59.304;18.294;2023-09-19T08:49:48;99566.84;;;18.42;83.93
76311;BME280;65120;59.304;18.294;2023-09-19T08:52:25;99569.34;;;18.43;83.75
76311;BME280;65120;59.304;18.294;2023-09-19T08:54:52;99557.84;;;18.45;83.80
76311;BME280;65120;59.304;18.294;2023-09-19T08:57:23;99564.72;;;18.47;83.67
76311;BME280;65120;59.304;18.294;2023-09-19T08:59:50;99560.16;;;18.49;83.79
76311;BME280;65120;59.304;18.294;2023-09-19T09:02:18;99560.91;;;18.51;83.56
76311;BME280;65120;59.304;18.294;2023-09-19T09:04:46;99554.53;;;18.54;83.58
76311;BME280;65120;59.304;18.294;2023-09-19T09:07:16;99549.13;;;18.55;83.47
76311;BME280;65120;59.304;18.294;2023-09-19T09:09:47;99541.94;;;18.57;83.42
76311;BME280;65120;59.304;18.294;2023-09-19T09:12:15;99543.63;;;18.58;83.35
76311;BME280;65120;59.304;18.294;2023-09-19T09:14:44;99531.13;;;18.60;83.21
76311;BME280;65120;59.304;18.294;2023-09-19T09:17:11;99523.09;;;18.62;83.19
76311;BME280;65120;59.304;18.294;2023-09-19T09:19:38;99520.34;;;18.63;83.02
76311;BME280;65120;59.304;18.294;2023-09-19T09:22:07;99511.25;;;18.68;83.16
76311;BME280;65120;59.304;18.294;2023-09-19T09:24:34;99513.75;;;18.69;82.91
76311;BME280;65120;59.304;18.294;2023-09-19T09:27:05;99497.28;;;18.65;83.01
76311;BME280;65120;59.304;18.294;2023-09-19T09:29:44;99502.88;;;18.74;82.81
76311;BME280;65120;59.304;18.294;2023-09-19T09:32:23;99507.22;;;18.75;82.75
76311;BME280;65120;59.304;18.294;2023-09-19T09:34:52;99504.47;;;18.76;82.81
76311;BME280;65120;59.304;18.294;2023-09-19T09:37:20;99501.59;;;18.79;83.10
76311;BME280;65120;59.304;18.294;2023-09-19T09:39:51;99502.22;;;18.83;83.34
76311;BME280;65120;59.304;18.294;2023-09-19T09:42:31;99499.25;;;18.87;83.61
76311;BME280;65120;59.304;18.294;2023-09-19T09:45:17;99492.00;;;18.90;83.06
76311;BME280;65120;59.304;18.294;2023-09-19T09:47:46;99499.13;;;18.89;82.62
76311;BME280;65120;59.304;18.294;2023-09-19T09:50:29;99513.69;;;18.95;82.60
76311;BME280;65120;59.304;18.294;2023-09-19T09:53:19;99523.22;;;18.97;82.53
76311;BME280;65120;59.304;18.294;2023-09-19T09:56:00;99542.25;;;19.02;82.18
76311;BME280;65120;59.304;18.294;2023-09-19T09:58:29;99522.28;;;18.98;81.80
76311;BME280;65120;59.304;18.294;2023-09-19T10:00:58;99520.13;;;19.03;81.54
76311;BME280;65120;59.304;18.294;2023-09-19T10:03:33;99509.53;;;19.03;81.34
76311;BME280;65120;59.304;18.294;2023-09-19T10:06:03;99504.97;;;19.05;81.20
76311;BME280;65120;59.304;18.294;2023-09-19T10:08:57;99511.94;;;19.06;81.14
76311;BME280;65120;59.304;18.294;2023-09-19T10:11:29;99510.28;;;19.05;80.98
76311;BME280;65120;59.304;18.294;2023-09-19T10:13:59;99511.94;;;19.06;80.71
76311;BME280;65120;59.304;18.294;2023-09-19T10:16:32;99511.72;;;19.09;80.54
76311;BME280;65120;59.304;18.294;2023-09-19T10:19:02;99504.50;;;19.12;80.58
76311;BME280;65120;59.304;18.294;2023-09-19T10:21:36;99486.81;;;19.12;80.64
76311;BME280;65120;59.304;18.294;2023-09-19T10:24:05;99495.63;;;19.13;80.55
76311;BME280;65120;59.304;18.294;2023-09-19T10:26:34;99487.56;;;19.14;80.54
76311;BME280;65120;59.304;18.294;2023-09-19T10:29:06;99483.13;;;19.15;80.44
76311;BME280;65120;59.304;18.294;2023-09-19T10:31:37;99469.53;;;19.19;80.53
76311;BME280;65120;59.304;18.294;2023-09-19T10:34:06;99473.78;;;19.22;80.70
76311;BME280;65120;59.304;18.294;2023-09-19T10:36:36;99475.22;;;19.26;80.65
76311;BME280;65120;59.304;18.294;2023-09-19T10:39:05;99481.13;;;19.29;80.29
76311;BME280;65120;59.304;18.294;2023-09-19T10:41:34;99468.63;;;19.31;80.21
76311;BME280;65120;59.304;18.294;2023-09-19T10:44:04;99474.50;;;19.35;80.37
76311;BME280;65120;59.304;18.294;2023-09-19T10:46:32;99476.97;;;19.38;80.32
76311;BME280;65120;59.304;18.294;2023-09-19T10:49:00;99477.66;;;19.40;80.43
76311;BME280;65120;59.304;18.294;2023-09-19T10:51:30;99495.13;;;19.43;80.71
76311;BME280;65120;59.304;18.294;2023-09-19T10:54:06;99488.53;;;19.48;80.25
76311;BME280;65120;59.304;18.294;2023-09-19T10:56:37;99487.44;;;19.51;80.37
76311;BME280;65120;59.304;18.294;2023-09-19T10:59:10;99479.25;;;19.54;79.70
76311;BME280;65120;59.304;18.294;2023-09-19T11:01:45;99478.44;;;19.53;79.76
76311;BME280;65120;59.304;18.294;2023-09-19T11:04:24;99479.63;;;19.61;80.05
76311;BME280;65120;59.304;18.294;2023-09-19T11:07:03;99472.41;;;19.63;79.28
76311;BME280;65120;59.304;18.294;2023-09-19T11:09:44;99476.56;;;19.67;79.70
76311;BME280;65120;59.304;18.294;2023-09-19T11:12:12;99472.94;;;19.68;78.50
76311;BME280;65120;59.304;18.294;2023-09-19T11:14:44;99472.72;;;19.71;79.00
76311;BME280;65120;59.304;18.294;2023-09-19T11:17:41;99475.94;;;19.74;78.54
76311;BME280;65120;59.304;18.294;2023-09-19T11:20:24;99478.59;;;19.74;78.46
76311;BME280;65120;59.304;18.294;2023-09-19T11:23:22;99469.56;;;19.77;78.06
76311;BME280;65120;59.304;18.294;2023-09-19T11:25:52;99464.28;;;19.77;77.74
76311;BME280;65120;59.304;18.294;2023-09-19T11:28:33;99447.31;;;19.80;77.26
76311;BME280;65120;59.304;18.294;2023-09-19T11:34:44;99451.53;;;19.82;76.66
76311;BME280;65120;59.304;18.294;2023-09-19T11:40:45;99442.59;;;19.83;75.60
76311;BME280;65120;59.304;18.294;2023-09-19T11:43:31;99453.81;;;19.87;75.45
76311;BME280;65120;59.304;18.294;2023-09-19T11:46:08;99454.75;;;19.86;74.64
76311;BME280;65120;59.304;18.294;2023-09-19T11:48:35;99454.66;;;19.87;74.20
76311;BME280;65120;59.304;18.294;2023-09-19T11:51:18;99444.75;;;19.89;73.07
76311;BME280;65120;59.304;18.294;2023-09-19T11:53:48;99443.22;;;19.87;71.79
76311;BME280;65120;59.304;18.294;2023-09-19T11:56:19;99430.09;;;19.85;71.00
76311;BME280;65120;59.304;18.294;2023-09-19T11:58:49;99439.00;;;19.84;70.32
76311;BME280;65120;59.304;18.294;2023-09-19T12:01:22;99436.34;;;19.84;70.26
76311;BME280;65120;59.304;18.294;2023-09-19T12:03:53;99428.75;;;19.80;69.68
76311;BME280;65120;59.304;18.294;2023-09-19T12:06:24;99437.28;;;19.83;68.67
76311;BME280;65120;59.304;18.294;2023-09-19T12:08:52;99432.88;;;19.84;69.74
76311;BME280;65120;59.304;18.294;2023-09-19T12:11:22;99430.31;;;19.82;68.74
76311;BME280;65120;59.304;18.294;2023-09-19T12:13:50;99436.59;;;19.81;68.42
76311;BME280;65120;59.304;18.294;2023-09-19T12:16:19;99442.00;;;19.80;68.43
76311;BME280;65120;59.304;18.294;2023-09-19T12:18:48;99425.13;;;19.69;67.29
76311;BME280;65120;59.304;18.294;2023-09-19T12:21:28;99435.88;;;19.79;67.98
76311;BME280;65120;59.304;18.294;2023-09-19T12:24:03;99441.28;;;19.77;68.71
76311;BME280;65120;59.304;18.294;2023-09-19T12:26:39;99441.28;;;19.77;67.98
76311;BME280;65120;59.304;18.294;2023-09-19T12:29:11;99442.25;;;19.76;68.00
76311;BME280;65120;59.304;18.294;2023-09-19T12:31:56;99436.09;;;19.76;67.45
76311;BME280;65120;59.304;18.294;2023-09-19T12:34:25;99435.38;;;19.74;66.76
76311;BME280;65120;59.304;18.294;2023-09-19T12:37:12;99422.25;;;19.72;67.14
76311;BME280;65120;59.304;18.294;2023-09-19T12:39:42;99422.38;;;19.71;66.20
76311;BME280;65120;59.304;18.294;2023-09-19T12:42:10;99420.69;;;19.70;66.23
76311;BME280;65120;59.304;18.294;2023-09-19T12:44:41;99427.06;;;19.67;64.52
76311;BME280;65120;59.304;18.294;2023-09-19T12:47:10;99428.97;;;19.65;65.08
76311;BME280;65120;59.304;18.294;2023-09-19T12:50:10;99431.63;;;19.65;65.28
76311;BME280;65120;59.304;18.294;2023-09-19T12:52:45;99428.34;;;19.62;64.32
76311;BME280;65120;59.304;18.294;2023-09-19T12:55:26;99429.31;;;19.61;64.11
76311;BME280;65120;59.304;18.294;2023-09-19T12:58:02;99430.50;;;19.57;63.06
76311;BME280;65120;59.304;18.294;2023-09-19T13:00:36;99438.09;;;19.50;63.19
76311;BME280;65120;59.304;18.294;2023-09-19T13:03:13;99441.59;;;19.50;62.87
76311;BME280;65120;59.304;18.294;2023-09-19T13:05:51;99440.13;;;19.46;62.32
76311;BME280;65120;59.304;18.294;2023-09-19T13:08:25;99424.59;;;19.42;62.81
76311;BME280;65120;59.304;18.294;2023-09-19T13:11:07;99424.09;;;19.37;62.14